Time;durP1;ratioP1;P1;durP2;ratioP2;P2;SDS_P1;SDS_P2;PMS_P1;PMS_P2;Temp;Humidity;BMP_temperature;BMP_pressure;BME280_temperature;BME280_humidity;BME280_pressure;Samples;Min_cycle;Max_cycle;Signal;HPM_P1;HPM_P2
2021/02/14 00:00:54;;;;;;;2.8;2;;;;;;;-10.35;76.3125;954.3965;;;;
2021/02/14 00:03:24;;;;;;;3.9;2.8;;;;;;;-10.35;76.08398;954.4325;;;;
2021/02/14 00:05:57;;;;;;;2.9;1;;;;;;;-10.26;75.54883;954.4084;;;;
2021/02/14 00:08:25;;;;;;;1.8;1.3;;;;;;;-10.5;75.43848;954.4188;;;;
2021/02/14 00:10:59;;;;;;;7.9;2.1;;;;;;;-10.47;75.67188;954.5099;;;;
2021/02/14 00:13:45;;;;;;;6.6;1.6;;;;;;;-10.5;75.37305;954.4121;;;;
2021/02/14 00:16:23;;;;;;;7.1;4.2;;;;;;;-10.59;75.66113;954.4289;;;;
2021/02/14 00:18:59;;;;;;;3.3;1.4;;;;;;;-10.66;76.7334;954.4314;;;;
2021/02/14 00:21:34;;;;;;;3.8;1.3;;;;;;;-10.71;76.41895;954.378;;;;
2021/02/14 00:24:08;;;;;;;3.5;1.2;;;;;;;-10.84;76.49316;954.3555;;;;
2021/02/14 00:26:42;;;;;;;1.5;1.2;;;;;;;-10.87;76.68359;954.4019;;;;
2021/02/14 00:29:14;;;;;;;2.7;2.4;;;;;;;-10.86;76.4668;954.4613;;;;
2021/02/14 00:31:54;;;;;;;1.9;1.6;;;;;;;-10.85;76.56738;954.3297;;;;
2021/02/14 00:34:25;;;;;;;6.1;3.9;;;;;;;-11;76.97363;954.3354;;;;
2021/02/14 00:36:53;;;;;;;6.6;2.8;;;;;;;-10.98;77.48828;954.3409;;;;
2021/02/14 00:39:18;;;;;;;2.6;2;;;;;;;-10.82;77.61523;954.3137;;;;
2021/02/14 00:41:45;;;;;;;2.9;2.2;;;;;;;-10.74;77.31543;954.4427;;;;
2021/02/14 00:44:29;;;;;;;1.9;1.7;;;;;;;-10.75;76.81445;954.4523;;;;
2021/02/14 00:47:09;;;;;;;2.3;1.8;;;;;;;-10.79;77.10059;954.413;;;;
2021/02/14 00:49:42;;;;;;;0.8;0.8;;;;;;;-10.79;76.75195;954.399;;;;
2021/02/14 00:52:18;;;;;;;10.5;2.6;;;;;;;-10.87;76.80273;954.4597;;;;
2021/02/14 00:54:46;;;;;;;4.1;1.9;;;;;;;-10.84;77.00391;954.4421;;;;
2021/02/14 00:57:15;;;;;;;3;2.2;;;;;;;-10.71;76.59277;954.3794;;;;
2021/02/14 00:59:47;;;;;;;1.3;1.1;;;;;;;-10.79;76.40625;954.537;;;;
2021/02/14 01:02:26;;;;;;;1.7;1.6;;;;;;;-10.91;76.50195;954.4956;;;;
2021/02/14 01:04:54;;;;;;;2.5;2;;;;;;;-10.94;76.39941;954.4846;;;;
2021/02/14 01:07:21;;;;;;;2.2;1.8;;;;;;;-11.03;76.24121;954.4199;;;;
2021/02/14 01:09:51;;;;;;;2;1.8;;;;;;;-11.17;76.5957;954.4503;;;;
2021/02/14 01:12:23;;;;;;;1.3;1.2;;;;;;;-11.42;78.00977;954.488;;;;
2021/02/14 01:14:48;;;;;;;2.6;1;;;;;;;-11.44;78.78711;954.4354;;;;
2021/02/14 01:17:30;;;;;;;2.5;1.4;;;;;;;-11.39;79.20898;954.473;;;;
2021/02/14 01:20:04;;;;;;;2.6;1.9;;;;;;;-11.26;79.00781;954.4317;;;;
2021/02/14 01:22:37;;;;;;;1.2;1.1;;;;;;;-11.08;78.58691;954.426;;;;
2021/02/14 01:25:16;;;;;;;2.2;1.7;;;;;;;-10.87;77.79102;954.4556;;;;
2021/02/14 01:27:43;;;;;;;1.5;1.2;;;;;;;-10.8;76.92383;954.4897;;;;
2021/02/14 01:30:08;;;;;;;1.1;1.1;;;;;;;-10.81;76.34863;954.5722;;;;
2021/02/14 01:32:39;;;;;;;5;1.5;;;;;;;-10.78;76.08008;954.5597;;;;
2021/02/14 01:35:11;;;;;;;1.2;1.1;;;;;;;-10.81;75.94531;954.5112;;;;
2021/02/14 01:37:38;;;;;;;1.5;1.4;;;;;;;-10.88;76.33496;954.6074;;;;
2021/02/14 01:40:11;;;;;;;2.5;1.8;;;;;;;-10.83;75.96289;954.6239;;;;
2021/02/14 01:42:43;;;;;;;4;1.3;;;;;;;-10.78;75.5918;954.5262;;;;
2021/02/14 01:45:12;;;;;;;2.2;0.9;;;;;;;-10.86;75.43555;954.5363;;;;
2021/02/14 01:47:38;;;;;;;1.9;1.7;;;;;;;-11.12;76.19238;954.4822;;;;
2021/02/14 01:50:09;;;;;;;4.1;1.8;;;;;;;-11.1;76.54395;954.4431;;;;
2021/02/14 01:52:45;;;;;;;1.7;1.3;;;;;;;-11.04;76.38086;954.5391;;;;
2021/02/14 01:55:18;;;;;;;2.8;1.9;;;;;;;-11.09;76.54395;954.5682;;;;
2021/02/14 01:57:45;;;;;;;1.9;1.7;;;;;;;-11.25;76.92773;954.5836;;;;
2021/02/14 02:00:09;;;;;;;2.2;1.6;;;;;;;-11.22;77.46387;954.5836;;;;
2021/02/14 02:02:43;;;;;;;2.4;1.2;;;;;;;-11.06;77.36426;954.5047;;;;
2021/02/14 02:05:08;;;;;;;1.3;1.2;;;;;;;-11.03;76.90332;954.503;;;;
2021/02/14 02:07:38;;;;;;;2.4;1.2;;;;;;;-11.26;77.09766;954.5695;;;;
2021/02/14 02:10:08;;;;;;;2.8;1.3;;;;;;;-11.39;77.9082;954.4171;;;;
2021/02/14 02:12:40;;;;;;;2.7;1.4;;;;;;;-11.25;77.87988;954.4139;;;;
2021/02/14 02:15:10;;;;;;;1.8;1.5;;;;;;;-11.23;77.92871;954.5659;;;;
2021/02/14 02:17:54;;;;;;;7.1;1.4;;;;;;;-11.18;77.99121;954.5162;;;;
2021/02/14 02:20:23;;;;;;;4;2.2;;;;;;;-11.08;77.78223;954.4853;;;;
2021/02/14 02:22:51;;;;;;;2.8;1.6;;;;;;;-11.04;77.3457;954.5198;;;;
2021/02/14 02:25:24;;;;;;;2;1.5;;;;;;;-10.89;76.98438;954.4719;;;;
2021/02/14 02:27:55;;;;;;;6.4;1.5;;;;;;;-10.92;76.63184;954.4556;;;;
2021/02/14 02:30:27;;;;;;;1.1;1;;;;;;;-10.96;77.02539;954.5452;;;;
2021/02/14 02:32:52;;;;;;;2.7;1.3;;;;;;;-10.97;76.7627;954.5584;;;;
2021/02/14 02:35:17;;;;;;;1.8;1.3;;;;;;;-11.04;76.8252;954.3859;;;;
2021/02/14 02:37:42;;;;;;;1.7;1.6;;;;;;;-11.28;77.4541;954.4371;;;;
2021/02/14 02:40:08;;;;;;;1.4;1.3;;;;;;;-11.28;78.14746;954.5873;;;;
2021/02/14 02:42:33;;;;;;;1.6;1.1;;;;;;;-11.12;77.48242;954.6144;;;;
2021/02/14 02:44:58;;;;;;;1.1;1;;;;;;;-11.15;77.42285;954.4382;;;;
2021/02/14 02:47:24;;;;;;;2.2;1.1;;;;;;;-11.12;77.58008;954.6253;;;;
2021/02/14 02:49:53;;;;;;;2.4;2.2;;;;;;;-11.01;77.42578;954.4836;;;;
2021/02/14 02:52:18;;;;;;;3.6;1.8;;;;;;;-10.97;77.07715;954.6256;;;;
2021/02/14 02:54:45;;;;;;;3;1.6;;;;;;;-11.06;76.875;954.6733;;;;
2021/02/14 02:57:10;;;;;;;4.8;2.1;;;;;;;-11.06;76.74609;954.5912;;;;
2021/02/14 02:59:35;;;;;;;4.4;1.8;;;;;;;-11.07;76.64648;954.5767;;;;
2021/02/14 03:02:00;;;;;;;2.9;1.8;;;;;;;-11.13;76.67969;954.6287;;;;
2021/02/14 03:04:28;;;;;;;2.7;2;;;;;;;-11.17;76.75879;954.5758;;;;
2021/02/14 03:06:53;;;;;;;1.6;1.4;;;;;;;-11.14;76.55762;954.6588;;;;
2021/02/14 03:09:20;;;;;;;1.9;1.7;;;;;;;-11.12;76.22461;954.635;;;;
2021/02/14 03:11:45;;;;;;;1.1;0.9;;;;;;;-11.15;77.20605;954.6125;;;;
2021/02/14 03:14:13;;;;;;;1.3;1.2;;;;;;;-11.21;77.29199;954.5917;;;;
2021/02/14 03:16:47;;;;;;;1.1;1.1;;;;;;;-11.05;77.00781;954.6595;;;;
2021/02/14 03:19:16;;;;;;;5.2;1.6;;;;;;;-10.94;76.61621;954.6917;;;;
2021/02/14 03:21:42;;;;;;;2.3;1.3;;;;;;;-10.87;76.24805;954.5309;;;;
2021/02/14 03:24:10;;;;;;;1.2;1.1;;;;;;;-10.92;76.69531;954.5739;;;;
2021/02/14 03:26:35;;;;;;;5.3;1.2;;;;;;;-10.83;76.56055;954.6177;;;;
2021/02/14 03:29:02;;;;;;;3.1;2.3;;;;;;;-10.74;75.94727;954.6145;;;;
2021/02/14 03:31:28;;;;;;;3.2;1.6;;;;;;;-10.89;76.83203;954.6272;;;;
2021/02/14 03:33:53;;;;;;;2;1.8;;;;;;;-10.8;76.83691;954.6394;;;;
2021/02/14 03:36:18;;;;;;;14.1;1.9;;;;;;;-10.76;76.58496;954.7528;;;;
2021/02/14 03:38:43;;;;;;;1.2;1;;;;;;;-10.65;76.19434;954.6711;;;;
2021/02/14 03:41:08;;;;;;;1.4;1.3;;;;;;;-10.85;76.05762;954.8364;;;;
2021/02/14 03:43:35;;;;;;;3.5;2;;;;;;;-10.94;76.45313;954.7757;;;;
2021/02/14 03:46:00;;;;;;;4.6;2.4;;;;;;;-10.96;76.42871;954.8155;;;;
2021/02/14 03:48:26;;;;;;;1.7;1.4;;;;;;;-11.19;77.06738;954.902;;;;
2021/02/14 03:50:51;;;;;;;3;1.9;;;;;;;-11.25;77.41406;954.909;;;;
2021/02/14 03:53:21;;;;;;;2.3;1.4;;;;;;;-11.37;77.67383;954.9794;;;;
2021/02/14 03:55:46;;;;;;;4.6;2.3;;;;;;;-11.4;77.91797;954.9702;;;;
2021/02/14 03:58:12;;;;;;;2.6;2.3;;;;;;;-11.41;78.00293;954.964;;;;
2021/02/14 04:02:31;;;;;;;10;4.2;;;;;;;-11.37;77.69531;955.0886;;;;
2021/02/14 04:04:56;;;;;;;9.8;3.6;;;;;;;-11.46;78.62109;955.0089;;;;
2021/02/14 04:07:22;;;;;;;7.3;3.4;;;;;;;-11.43;78.41992;955.0975;;;;
2021/02/14 04:09:47;;;;;;;3.6;2;;;;;;;-11.43;79.43848;955.0268;;;;
2021/02/14 04:12:14;;;;;;;5.7;1.8;;;;;;;-11.36;78.91113;955.0334;;;;
2021/02/14 04:14:39;;;;;;;1.4;1.3;;;;;;;-11.28;78.42969;954.9501;;;;
2021/02/14 04:17:07;;;;;;;3.9;2.2;;;;;;;-11.21;77.99707;955.0396;;;;
2021/02/14 04:19:33;;;;;;;4.4;1.8;;;;;;;-11.18;77.58984;955.1697;;;;
2021/02/14 04:21:59;;;;;;;0.9;0.9;;;;;;;-11.31;77.5752;955.2785;;;;
2021/02/14 04:24:24;;;;;;;0.8;0.8;;;;;;;-11.33;77.60645;955.2747;;;;
2021/02/14 04:26:52;;;;;;;1.1;1;;;;;;;-11.38;77.64063;955.3221;;;;
2021/02/14 04:29:17;;;;;;;1.9;1.2;;;;;;;-11.32;77.3584;955.2067;;;;
2021/02/14 04:31:42;;;;;;;15.6;1.6;;;;;;;-11.47;77.94727;955.2229;;;;
2021/02/14 04:34:07;;;;;;;0.9;0.9;;;;;;;-11.42;78.3584;955.2294;;;;
2021/02/14 04:36:32;;;;;;;0.7;0.7;;;;;;;-11.48;78.95508;955.1213;;;;
2021/02/14 04:38:57;;;;;;;1.9;1.1;;;;;;;-11.44;79.35059;955.1716;;;;
2021/02/14 04:41:23;;;;;;;2.7;1.4;;;;;;;-11.34;78.77344;955.1689;;;;
2021/02/14 04:43:47;;;;;;;2.4;1.4;;;;;;;-11.32;78.46387;955.077;;;;
2021/02/14 04:46:15;;;;;;;1.6;0.9;;;;;;;-11.3;78.34863;955.1998;;;;
2021/02/14 04:48:40;;;;;;;12.4;2.5;;;;;;;-11.37;78.15039;955.2463;;;;
2021/02/14 04:51:05;;;;;;;0.9;0.9;;;;;;;-11.44;78.27734;955.1701;;;;
2021/02/14 04:53:30;;;;;;;3.6;1.9;;;;;;;-11.63;78.7959;955.0858;;;;
2021/02/14 04:55:56;;;;;;;1.2;1.1;;;;;;;-11.48;78.22754;955.1771;;;;
2021/02/14 04:58:22;;;;;;;0.8;0.8;;;;;;;-11.4;77.63574;955.2438;;;;
2021/02/14 05:00:50;;;;;;;1.5;1.3;;;;;;;-11.57;77.63574;955.1721;;;;
2021/02/14 05:03:15;;;;;;;1.8;0.9;;;;;;;-11.59;78.02441;955.1426;;;;
2021/02/14 05:05:48;;;;;;;2.2;1.6;;;;;;;-11.58;78.65234;955.1017;;;;
2021/02/14 05:08:17;;;;;;;1.3;1.2;;;;;;;-11.46;78.42773;955.1386;;;;
2021/02/14 05:10:49;;;;;;;1.6;1.3;;;;;;;-11.31;77.80469;955.1864;;;;
2021/02/14 05:13:12;;;;;;;4.1;1.3;;;;;;;-11.1;76.86816;955.1806;;;;
2021/02/14 05:15:52;;;;;;;0.9;0.9;;;;;;;-11.01;76.0498;955.1594;;;;
2021/02/14 05:18:17;;;;;;;2.6;1.4;;;;;;;-11.03;75.79688;955.1705;;;;
2021/02/14 05:20:46;;;;;;;13.6;6.5;;;;;;;-11.2;76.7627;955.092;;;;
2021/02/14 05:23:14;;;;;;;5.4;4.2;;;;;;;-11.4;77.36523;955.1777;;;;
2021/02/14 05:25:49;;;;;;;3.3;2.4;;;;;;;-11.48;77.39258;955.1115;;;;
2021/02/14 05:28:15;;;;;;;1.8;1.7;;;;;;;-11.5;77.91992;955.1425;;;;
2021/02/14 05:30:40;;;;;;;1.9;1.7;;;;;;;-11.4;77.60352;955.1378;;;;
2021/02/14 05:33:07;;;;;;;3;1.8;;;;;;;-11.38;77.4873;955.1914;;;;
2021/02/14 05:35:32;;;;;;;1.1;1;;;;;;;-11.52;77.73242;955.1817;;;;
2021/02/14 05:37:57;;;;;;;1.4;1.3;;;;;;;-11.66;78.12793;955.1902;;;;
2021/02/14 05:40:24;;;;;;;0.8;0.8;;;;;;;-11.64;77.91504;955.1711;;;;
2021/02/14 05:42:49;;;;;;;1.5;1.4;;;;;;;-11.56;77.9209;955.1969;;;;
2021/02/14 05:45:18;;;;;;;2.7;1.6;;;;;;;-11.58;77.70996;955.2145;;;;
2021/02/14 05:47:44;;;;;;;1.2;1.1;;;;;;;-11.58;78.03516;955.2262;;;;
2021/02/14 05:50:13;;;;;;;1.3;1.2;;;;;;;-11.58;78.0459;955.1325;;;;
2021/02/14 05:52:40;;;;;;;1;1;;;;;;;-11.58;78.19727;955.2123;;;;
2021/02/14 05:55:03;;;;;;;1.4;1.3;;;;;;;-11.64;78.14355;955.252;;;;
2021/02/14 05:57:30;;;;;;;5.8;1.4;;;;;;;-11.65;78.72559;955.1401;;;;
2021/02/14 05:59:55;;;;;;;0.6;0.6;;;;;;;-11.56;77.82324;955.2169;;;;
2021/02/14 06:02:20;;;;;;;1.5;1.3;;;;;;;-11.51;77.15137;955.2183;;;;
2021/02/14 06:04:47;;;;;;;0.8;0.8;;;;;;;-11.49;77.31543;955.2067;;;;
2021/02/14 06:07:12;;;;;;;1.3;1;;;;;;;-11.31;76.96973;955.2402;;;;
2021/02/14 06:09:38;;;;;;;0.8;0.8;;;;;;;-11.21;75.94727;955.2335;;;;
2021/02/14 06:12:03;;;;;;;4.8;1.5;;;;;;;-11.12;75.62793;955.2271;;;;
2021/02/14 06:14:29;;;;;;;0.8;0.8;;;;;;;-11.09;75.53516;955.2433;;;;
2021/02/14 06:17:05;;;;;;;2.2;1.2;;;;;;;-11.14;75.80859;955.2841;;;;
2021/02/14 06:19:30;;;;;;;1.2;1.1;;;;;;;-11.16;75.48926;955.3135;;;;
2021/02/14 06:21:56;;;;;;;0.7;0.7;;;;;;;-11.35;76.36719;955.344;;;;
2021/02/14 06:24:21;;;;;;;1.6;1.4;;;;;;;-11.29;76.64941;955.278;;;;
2021/02/14 06:26:46;;;;;;;3.1;1.2;;;;;;;-11.33;76.3916;955.3448;;;;
2021/02/14 06:29:14;;;;;;;4.7;3.4;;;;;;;-11.64;77.34082;955.3309;;;;
2021/02/14 06:31:39;;;;;;;3.1;2.8;;;;;;;-11.69;77.9082;955.4033;;;;
2021/02/14 06:34:06;;;;;;;3.7;2.5;;;;;;;-11.49;77.85742;955.3859;;;;
2021/02/14 06:36:31;;;;;;;3;1.8;;;;;;;-11.49;77.23926;955.4464;;;;
2021/02/14 06:38:57;;;;;;;2.4;2.2;;;;;;;-11.44;77.73535;955.6;;;;
2021/02/14 06:41:22;;;;;;;4.8;3.8;;;;;;;-11.44;76.80371;955.5692;;;;
2021/02/14 06:43:49;;;;;;;7.8;4;;;;;;;-11.47;76.18066;955.6106;;;;
2021/02/14 06:46:14;;;;;;;11.4;4.2;;;;;;;-11.62;76.80371;955.7015;;;;
2021/02/14 06:48:39;;;;;;;11;3.8;;;;;;;-11.49;77.0332;955.6837;;;;
2021/02/14 06:51:07;;;;;;;3.3;2.2;;;;;;;-11.48;77.10156;955.8052;;;;
2021/02/14 06:53:32;;;;;;;5;3.4;;;;;;;-11.4;76.75781;955.8746;;;;
2021/02/14 06:55:57;;;;;;;3;2.7;;;;;;;-11.5;76.59863;955.8131;;;;
2021/02/14 06:58:22;;;;;;;5.8;3.2;;;;;;;-11.48;76.92676;955.8303;;;;
2021/02/14 07:00:49;;;;;;;5.3;3;;;;;;;-11.43;77.30566;955.9045;;;;
2021/02/14 07:03:14;;;;;;;1.9;1.7;;;;;;;-11.2;76.91406;955.8362;;;;
2021/02/14 07:05:41;;;;;;;1.6;1.4;;;;;;;-10.7;75.69531;955.74;;;;
2021/02/14 07:08:06;;;;;;;1.4;1.3;;;;;;;-10.11;73.21582;955.7299;;;;
2021/02/14 07:10:31;;;;;;;4.4;1.9;;;;;;;-9.67;70.6709;955.6878;;;;
2021/02/14 07:12:59;;;;;;;7.5;4.7;;;;;;;-9.23;68.42578;955.8017;;;;
2021/02/14 07:15:39;;;;;;;4.5;2.6;;;;;;;-8.54;66.14941;955.7908;;;;
2021/02/14 07:18:11;;;;;;;2.9;2.1;;;;;;;-8.37;64.73633;955.7484;;;;
2021/02/14 07:20:40;;;;;;;6.6;2.8;;;;;;;-8.33;64.84961;955.8208;;;;
2021/02/14 07:23:05;;;;;;;5.9;1.5;;;;;;;-8.2;63.70313;955.7319;;;;
2021/02/14 07:25:34;;;;;;;1.3;1.2;;;;;;;-7.87;62.79102;955.7434;;;;
2021/02/14 07:27:59;;;;;;;3.4;1.4;;;;;;;-7.5;60.76855;955.7767;;;;
2021/02/14 07:30:29;;;;;;;1.8;1.2;;;;;;;-7.03;59.62012;955.7379;;;;
2021/02/14 07:32:54;;;;;;;1.3;0.9;;;;;;;-6.55;59.00879;955.6814;;;;
2021/02/14 07:35:20;;;;;;;1.1;1;;;;;;;-6.12;55.96484;955.72;;;;
2021/02/14 07:37:44;;;;;;;1.9;1.3;;;;;;;-5.89;55.46875;955.7311;;;;
2021/02/14 07:40:11;;;;;;;1.1;1;;;;;;;-5.7;54.02148;955.7328;;;;
2021/02/14 07:42:36;;;;;;;3;2.1;;;;;;;-5.65;55.07227;955.7936;;;;
2021/02/14 07:45:02;;;;;;;0.7;0.7;;;;;;;-5.28;55.11035;955.8736;;;;
2021/02/14 07:47:28;;;;;;;1.5;1.1;;;;;;;-5.49;57.37012;955.8915;;;;
2021/02/14 07:49:55;;;;;;;2.3;1.5;;;;;;;-5.76;55.00195;955.882;;;;
2021/02/14 07:52:19;;;;;;;2.8;2;;;;;;;-5.73;53.97363;955.8369;;;;
2021/02/14 07:54:45;;;;;;;2.2;1.7;;;;;;;-5.44;54.61621;955.9171;;;;
2021/02/14 07:57:10;;;;;;;2.6;1.8;;;;;;;-4.94;53.77832;955.8845;;;;
2021/02/14 07:59:36;;;;;;;3;2.1;;;;;;;-5.07;51.52832;955.9554;;;;
2021/02/14 08:02:05;;;;;;;1.9;1.5;;;;;;;-4.45;50.86621;955.9398;;;;
2021/02/14 08:04:32;;;;;;;3.2;1.3;;;;;;;-4.38;49.90527;955.9178;;;;
2021/02/14 08:06:57;;;;;;;2.9;2;;;;;;;-3.71;50.82422;955.9166;;;;
2021/02/14 08:09:22;;;;;;;3;2.5;;;;;;;-3.43;48.99121;955.9141;;;;
2021/02/14 08:11:51;;;;;;;2.4;1.7;;;;;;;-2.93;46.08398;955.8059;;;;
2021/02/14 08:14:16;;;;;;;4;2.7;;;;;;;-2.77;46.7998;955.8131;;;;
2021/02/14 08:16:46;;;;;;;4.1;1.6;;;;;;;-1.96;45.64746;955.8409;;;;
2021/02/14 08:19:31;;;;;;;2;1.5;;;;;;;-1.41;43.29883;955.7698;;;;
2021/02/14 08:22:02;;;;;;;2.8;1.7;;;;;;;-1.09;40.59863;955.9016;;;;
2021/02/14 08:24:31;;;;;;;4.9;1.7;;;;;;;-0.76;40.96387;955.8922;;;;
2021/02/14 08:26:56;;;;;;;2.6;1.3;;;;;;;-0.13;39.49805;955.9235;;;;
2021/02/14 08:29:21;;;;;;;3.1;0.9;;;;;;;-0.01;39.01953;955.9355;;;;
2021/02/14 08:31:47;;;;;;;3.6;1.8;;;;;;;0.05;39.0918;955.9197;;;;
2021/02/14 08:34:12;;;;;;;4.6;2.4;;;;;;;0.11;40.14551;955.9417;;;;
2021/02/14 08:36:37;;;;;;;8.5;1.7;;;;;;;1.5;38.65625;955.9239;;;;
2021/02/14 08:39:02;;;;;;;11.7;6.1;;;;;;;1.67;35.94336;955.9595;;;;
2021/02/14 08:41:27;;;;;;;8.7;4.1;;;;;;;0.61;37.28125;956.02;;;;
2021/02/14 08:43:52;;;;;;;6.8;2;;;;;;;-1.75;41.65527;955.9788;;;;
2021/02/14 08:46:20;;;;;;;13.7;7.3;;;;;;;-2.47;44.82813;955.8836;;;;
2021/02/14 08:48:45;;;;;;;22.6;10.5;;;;;;;-2.92;45.17871;956.0873;;;;
2021/02/14 08:51:12;;;;;;;12.4;7.2;;;;;;;-3.2;47.18262;956.1282;;;;
2021/02/14 08:53:37;;;;;;;7.4;3.8;;;;;;;-3.44;48.28125;956.0528;;;;
2021/02/14 08:56:05;;;;;;;8.3;2.2;;;;;;;-4.01;48.23828;956.0463;;;;
2021/02/14 08:58:31;;;;;;;2.2;1.5;;;;;;;-3.94;48.5459;956.0319;;;;
2021/02/14 09:00:58;;;;;;;3.4;1.9;;;;;;;-4.04;47.21973;956.0228;;;;
2021/02/14 09:03:23;;;;;;;1.9;1.6;;;;;;;-4.31;48.42383;956.0353;;;;
2021/02/14 09:05:50;;;;;;;2.2;1.2;;;;;;;-4.22;48.45703;956.019;;;;
2021/02/14 09:08:18;;;;;;;2.1;1;;;;;;;-3.79;48.30859;955.9943;;;;
2021/02/14 09:10:44;;;;;;;0.9;0.8;;;;;;;-3.3;47.61328;955.9558;;;;
2021/02/14 09:13:11;;;;;;;6.8;2.5;;;;;;;-2.88;45.76855;955.9553;;;;
2021/02/14 09:15:43;;;;;;;11.4;1.1;;;;;;;-2.3;45.43262;955.9331;;;;
2021/02/14 09:18:10;;;;;;;2.6;1.2;;;;;;;-1.31;43.77441;955.8771;;;;
2021/02/14 09:20:44;;;;;;;15.8;1.7;;;;;;;-1.2;41.10938;955.8937;;;;
2021/02/14 09:23:09;;;;;;;4;2.1;;;;;;;-1.36;39.86133;955.9177;;;;
2021/02/14 09:25:38;;;;;;;2.4;1.5;;;;;;;-0.55;40.11621;955.9309;;;;
2021/02/14 09:28:03;;;;;;;1.5;0.9;;;;;;;0.62;37.09277;955.8808;;;;
2021/02/14 09:30:31;;;;;;;3.9;1.7;;;;;;;0.36;37.45996;955.9751;;;;
2021/02/14 09:33:00;;;;;;;3.2;1.3;;;;;;;0.15;36.05957;955.9426;;;;
2021/02/14 09:35:27;;;;;;;1.8;1.2;;;;;;;0.29;37.01953;955.9492;;;;
2021/02/14 09:37:54;;;;;;;2;1.3;;;;;;;0.65;36.60449;955.9783;;;;
2021/02/14 09:40:19;;;;;;;1.6;1.3;;;;;;;0.39;37.68652;955.9803;;;;
2021/02/14 09:42:45;;;;;;;3.3;1.8;;;;;;;0.96;36.64258;955.8755;;;;
2021/02/14 09:45:10;;;;;;;5.2;1.9;;;;;;;0.51;37.40625;955.9436;;;;
2021/02/14 09:47:36;;;;;;;2.4;1.4;;;;;;;0.3;37.93457;955.8794;;;;
2021/02/14 09:50:01;;;;;;;6.3;1.2;;;;;;;0.72;39.83496;955.7545;;;;
2021/02/14 09:52:27;;;;;;;3.3;1.9;;;;;;;0.62;36.8252;955.8338;;;;
2021/02/14 09:54:53;;;;;;;5;2.4;;;;;;;0.21;37.30176;955.8427;;;;
2021/02/14 09:57:18;;;;;;;1.5;1;;;;;;;0.47;36.07617;955.9874;;;;
2021/02/14 09:59:43;;;;;;;1.4;1;;;;;;;-0.14;36.43555;955.9294;;;;
2021/02/14 10:02:10;;;;;;;2.4;1.3;;;;;;;0.11;38.40723;955.9509;;;;
2021/02/14 10:04:35;;;;;;;3.1;1.2;;;;;;;0.56;36.13965;955.8789;;;;
2021/02/14 10:07:00;;;;;;;1.9;1.3;;;;;;;0.53;36.57129;955.8511;;;;
2021/02/14 10:09:27;;;;;;;1.8;1;;;;;;;1.2;36.6084;955.7941;;;;
2021/02/14 10:11:51;;;;;;;1.9;1.3;;;;;;;1.62;34.97754;955.6255;;;;
2021/02/14 10:14:19;;;;;;;1.5;1;;;;;;;0.64;35.03125;955.748;;;;
2021/02/14 10:16:44;;;;;;;2.7;1.4;;;;;;;0.21;36.05371;955.722;;;;
2021/02/14 10:19:10;;;;;;;2.6;1;;;;;;;0.26;37.31738;955.7255;;;;
2021/02/14 10:21:36;;;;;;;3.2;1;;;;;;;0.56;36.40723;955.7216;;;;
2021/02/14 10:24:00;;;;;;;1.6;1;;;;;;;0.69;36.79785;955.747;;;;
2021/02/14 10:26:25;;;;;;;2;1;;;;;;;0.4;37.06152;955.6475;;;;
2021/02/14 10:28:52;;;;;;;60.1;27;;;;;;;-0.09;38.65723;955.5507;;;;
2021/02/14 10:31:17;;;;;;;6.4;2.4;;;;;;;0.04;40.26172;955.5717;;;;
2021/02/14 10:33:43;;;;;;;2.5;1.5;;;;;;;0;37.94141;955.5602;;;;
2021/02/14 10:36:08;;;;;;;5.8;1.6;;;;;;;-0.31;37.86816;955.5372;;;;
2021/02/14 10:38:34;;;;;;;1.1;0.9;;;;;;;0.24;38.39648;955.4669;;;;
2021/02/14 10:40:59;;;;;;;6.2;2.1;;;;;;;0.69;37.14453;955.4219;;;;
2021/02/14 10:43:26;;;;;;;2.4;1.5;;;;;;;1.02;36.72656;955.3108;;;;
2021/02/14 10:45:52;;;;;;;11.2;1.7;;;;;;;1.34;36.68652;955.2597;;;;
2021/02/14 10:48:18;;;;;;;2;1.5;;;;;;;1.46;34.66309;955.2745;;;;
2021/02/14 10:50:43;;;;;;;1.9;1.2;;;;;;;0.65;34.83008;955.2827;;;;
2021/02/14 10:53:10;;;;;;;2.6;1.5;;;;;;;1.12;35.04785;955.1364;;;;
2021/02/14 10:55:35;;;;;;;6.4;2.3;;;;;;;1.77;34.91113;955.1958;;;;
2021/02/14 10:58:00;;;;;;;5.1;1.7;;;;;;;2.21;33.79492;955.1692;;;;
2021/02/14 11:00:25;;;;;;;4;1.9;;;;;;;1.9;32.7627;955.1481;;;;
2021/02/14 11:02:51;;;;;;;6.5;2.7;;;;;;;1.99;33.06055;955.0597;;;;
2021/02/14 11:05:24;;;;;;;3.4;1.7;;;;;;;2.93;34.3457;954.9386;;;;
2021/02/14 11:07:41;;;;;;;1.7;1.1;;;;;;;2.76;31.94336;954.956;;;;
2021/02/14 11:10:07;;;;;;;1.8;0.8;;;;;;;2.9;32.58203;954.8731;;;;
2021/02/14 11:12:32;;;;;;;10;1;;;;;;;4.05;32.47949;954.7858;;;;
2021/02/14 11:14:57;;;;;;;1.6;1;;;;;;;4.24;30.19824;954.804;;;;
2021/02/14 11:17:22;;;;;;;8.4;2.4;;;;;;;2.96;30.94922;954.7278;;;;
2021/02/14 11:19:47;;;;;;;0.8;0.7;;;;;;;3.53;29.92285;954.76;;;;
2021/02/14 11:22:12;;;;;;;5.6;2.7;;;;;;;4.06;29.10547;954.7158;;;;
2021/02/14 11:24:42;;;;;;;0.3;0.3;;;;;;;5.38;25.8457;954.728;;;;
2021/02/14 11:27:06;;;;;;;8.6;1;;;;;;;5.31;25.39063;954.6263;;;;
2021/02/14 11:29:34;;;;;;;0.8;0.6;;;;;;;5.56;25.49512;954.7017;;;;
2021/02/14 11:31:56;;;;;;;0.8;0.6;;;;;;;6.77;25.71484;954.6978;;;;
2021/02/14 11:34:22;;;;;;;2.8;1.3;;;;;;;7.38;23.4502;954.6968;;;;
2021/02/14 11:36:47;;;;;;;1.1;0.4;;;;;;;7.84;22.4541;954.6691;;;;
2021/02/14 11:39:13;;;;;;;4.4;0.6;;;;;;;8.93;22.61328;954.6595;;;;
2021/02/14 11:41:38;;;;;;;0.3;0.3;;;;;;;9.45;20.87598;954.7293;;;;
2021/02/14 11:44:04;;;;;;;6.8;1.2;;;;;;;10.19;20.71777;954.6506;;;;
2021/02/14 11:46:29;;;;;;;0.3;0.3;;;;;;;9.95;20.78516;954.5491;;;;
2021/02/14 11:48:56;;;;;;;1.9;1;;;;;;;11.62;20.72852;954.6409;;;;
2021/02/14 11:51:21;;;;;;;0.5;0.5;;;;;;;13.15;18.5498;954.5584;;;;
2021/02/14 11:53:47;;;;;;;0.6;0.4;;;;;;;14.3;16.44629;954.526;;;;
2021/02/14 11:56:12;;;;;;;1.4;0.6;;;;;;;15.11;15.69141;954.4575;;;;
2021/02/14 11:58:39;;;;;;;2;0.7;;;;;;;15.24;17.3584;954.4529;;;;
2021/02/14 12:01:04;;;;;;;0.1;0.1;;;;;;;16.63;15.7002;954.4822;;;;
2021/02/14 12:03:33;;;;;;;1.1;0.3;;;;;;;16.91;14.44727;954.4081;;;;
2021/02/14 12:05:57;;;;;;;3.6;0.3;;;;;;;17.16;14.81445;954.4344;;;;
2021/02/14 12:08:22;;;;;;;0.5;0.4;;;;;;;17.6;14.22656;954.4172;;;;
2021/02/14 12:10:47;;;;;;;0.5;0.3;;;;;;;18.74;14.18164;954.4483;;;;
2021/02/14 12:13:16;;;;;;;0.4;0.4;;;;;;;19.05;13.55078;954.4758;;;;
2021/02/14 12:15:42;;;;;;;0.4;0.3;;;;;;;19.55;13.61328;954.459;;;;
2021/02/14 12:18:09;;;;;;;0.7;0.2;;;;;;;19.64;13.58105;954.4553;;;;
2021/02/14 12:20:33;;;;;;;0.6;0.2;;;;;;;20.55;13.24707;954.4645;;;;
2021/02/14 12:22:59;;;;;;;0.7;0.4;;;;;;;20.73;12.91406;954.4666;;;;
2021/02/14 12:25:23;;;;;;;0.4;0.3;;;;;;;21.18;12.51758;954.4228;;;;
2021/02/14 12:27:49;;;;;;;0.3;0.3;;;;;;;21.47;13.22754;954.3684;;;;
2021/02/14 12:30:14;;;;;;;0.4;0.4;;;;;;;21.32;12.12305;954.3546;;;;
2021/02/14 12:32:39;;;;;;;1.5;0.4;;;;;;;22.33;11.93945;954.3569;;;;
2021/02/14 12:35:05;;;;;;;0.9;0.5;;;;;;;22.56;12.46191;954.3505;;;;
2021/02/14 12:37:31;;;;;;;0.4;0.3;;;;;;;22.54;13.43555;954.3477;;;;
2021/02/14 12:39:56;;;;;;;0.5;0.4;;;;;;;22.22;13.46094;954.3869;;;;
2021/02/14 12:42:22;;;;;;;0.3;0.2;;;;;;;22;13.78223;954.3031;;;;
2021/02/14 12:44:47;;;;;;;0.4;0.3;;;;;;;22.13;13.30566;954.3204;;;;
2021/02/14 12:47:13;;;;;;;1.1;0.5;;;;;;;20.99;14.6748;954.3361;;;;
2021/02/14 12:49:38;;;;;;;1.2;0.3;;;;;;;19.92;14.79102;954.3067;;;;
2021/02/14 12:52:03;;;;;;;1.4;0.9;;;;;;;18.6;15.70117;954.26;;;;
2021/02/14 12:54:29;;;;;;;2.7;1;;;;;;;17.88;16.94043;954.2164;;;;
2021/02/14 12:56:53;;;;;;;1;0.7;;;;;;;17.05;17.91699;954.1781;;;;
2021/02/14 12:59:19;;;;;;;1.3;0.6;;;;;;;16.04;18.52344;954.2238;;;;
2021/02/14 13:01:44;;;;;;;0.4;0.4;;;;;;;17.82;17.92578;954.1786;;;;
2021/02/14 13:04:10;;;;;;;0.4;0.3;;;;;;;18.01;16.99219;954.1061;;;;
2021/02/14 13:06:35;;;;;;;1.1;0.5;;;;;;;18.9;16.71191;954.1247;;;;
2021/02/14 13:09:02;;;;;;;0.3;0.3;;;;;;;17.41;17.6416;954.147;;;;
2021/02/14 13:11:27;;;;;;;1.1;0.7;;;;;;;16.33;18.84863;954.0848;;;;
2021/02/14 13:13:54;;;;;;;0.6;0.4;;;;;;;16.28;17.88574;954.0584;;;;
2021/02/14 13:16:21;;;;;;;7.8;0.9;;;;;;;15.28;19.2998;954.0668;;;;
2021/02/14 13:18:46;;;;;;;0.4;0.3;;;;;;;16.59;18.48926;954.0367;;;;
2021/02/14 13:21:11;;;;;;;1.1;0.8;;;;;;;15.06;20.02832;954.0636;;;;
2021/02/14 13:23:36;;;;;;;1.6;0.8;;;;;;;15.39;19.76563;954.0958;;;;
2021/02/14 13:26:03;;;;;;;0.9;0.6;;;;;;;15.81;20.32813;954.0061;;;;
2021/02/14 13:28:28;;;;;;;3.5;0.6;;;;;;;15.2;20.48438;953.9222;;;;
2021/02/14 13:30:53;;;;;;;1.3;0.6;;;;;;;14.97;20.37012;953.9548;;;;
2021/02/14 13:33:19;;;;;;;1.8;0.7;;;;;;;14.75;20.48633;954.0044;;;;
2021/02/14 13:35:44;;;;;;;2.3;0.8;;;;;;;14.53;21.66309;954.0159;;;;
2021/02/14 13:38:09;;;;;;;1.1;0.6;;;;;;;13.68;22.64453;953.9716;;;;
2021/02/14 13:40:36;;;;;;;0.7;0.5;;;;;;;14.81;21.00879;953.9269;;;;
2021/02/14 13:43:01;;;;;;;1.2;0.8;;;;;;;15.08;20.15625;953.9772;;;;
2021/02/14 13:45:26;;;;;;;0.7;0.5;;;;;;;14.06;20.7998;954.0095;;;;
2021/02/14 13:47:52;;;;;;;0.9;0.7;;;;;;;14.69;20.7832;953.9671;;;;
2021/02/14 13:50:18;;;;;;;0.6;0.4;;;;;;;14.94;19.95313;954.0066;;;;
2021/02/14 13:52:43;;;;;;;0.2;0.2;;;;;;;15.26;19.94531;953.9975;;;;
2021/02/14 13:55:09;;;;;;;1.2;0.7;;;;;;;12.06;21.9873;954.075;;;;
2021/02/14 13:57:34;;;;;;;0.9;0.4;;;;;;;11.42;23.41895;954.06;;;;
2021/02/14 14:00:00;;;;;;;0.5;0.4;;;;;;;11.57;22.85547;954.0567;;;;
2021/02/14 14:02:50;;;;;;;0.5;0.5;;;;;;;12.78;21.63379;953.9671;;;;
2021/02/14 14:05:02;;;;;;;0.8;0.5;;;;;;;12.61;21.84277;953.9998;;;;
2021/02/14 14:07:42;;;;;;;0.4;0.3;;;;;;;13.08;21.18945;954.0019;;;;
2021/02/14 14:09:41;;;;;;;1;0.7;;;;;;;13.22;20.90918;953.9908;;;;
2021/02/14 14:12:06;;;;;;;0.5;0.4;;;;;;;12.51;21.34473;953.997;;;;
2021/02/14 14:14:32;;;;;;;0.8;0.5;;;;;;;12.48;21.83691;954.1147;;;;
2021/02/14 14:16:57;;;;;;;0.5;0.4;;;;;;;13.05;20.98145;954.0298;;;;
2021/02/14 14:19:22;;;;;;;0.5;0.4;;;;;;;12.88;21.15625;954.106;;;;
2021/02/14 14:21:48;;;;;;;0.5;0.5;;;;;;;11.04;22.70117;954.1191;;;;